Portales, NM (88130)

9:27 AM MDT on September 16, 2014 (GMT -0600)
S of ENMU | Change Station
CLOSE
Current Station
Personal Weather Station
Location: Portales, NM
Elevation: 4078 ft
Nearby Weather Stations

Elev 4078 ft 34.17 °N, 103.35 °W | Updated 2 seconds ago

Overcast
Overcast
67.1 °F
Feels Like 67.1 °F
N
0.2
Wind Variable Wind from NW
Gusts 1.3 mph

Today
High -- | Low -- °F
--% Chance of Precip.
Yesterday
High -- | Low -- °F
Precip. -- in
6:37 AM 6:58 PM
Last Quarter, 45% visible
Pressure 30.29 in
Visibility 4.0 miles
Clouds Overcast 800 ft
Dew Point 60 °F
Humidity 78%
Rainfall 0.00 in
Snow Depth 0 in , 1 in , 3 in
UV 1 out of 12
Pollen 7.40 out of 12
Air Quality Not available.
Flu Activity Not available.
SPECI KCVS 161509Z 15004KT 4SM BR OVC008 18/17 A3029 RMK AO2A $

More Conditions Fewer Conditions

Pressure 30.29 in
Visibility 4.0 miles
Clouds Overcast 800 ft
Dew Point 60 °F
Humidity 78%
Rainfall 0.00 in
Snow Depth 0 in , 1 in , 3 in
UV 1 out of 12
Pollen 7.40 out of 12
Air Quality Not available.
Flu Activity Not available.
SPECI KCVS 161509Z 15004KT 4SM BR OVC008 18/17 A3029 RMK AO2A $

More Conditions Fewer Conditions

Nowcast | as of 8:25 am MDT on September 16, 2014

A widespread area of rain will continue to track to the east and northeast over New Mexico...mainly south of Interstate 40. Before 1030 am the focus for any heavier rain will be from the Socorro area southeastward over Lincoln and western Chaves counties. Rain amounts will mostly range from one tenth to one quarter inch with some locally heavier amounts of one half inch or more. Some locations which will be impacted include Bosque del Apache... Bingham...Carrizozo...Claunch...oscuro...Encinoso... Arabela...and dusty. Hazardous runoff will continue to be possible in locations that received heavy rain last night. Area motorists should anticipate significant ponding of water on roads as well as fast flowing water over low water crossings.

×

10-Day Weather Forecast

Almanac

Astronomy

Sep. 16, 2014 Rise Set
Actual Time 6:37 AM MDT 6:58 PM MDT
Civil Twilight 6:12 AM MDT 7:23 PM MDT
Nautical Twilight 5:42 AM MDT 7:52 PM MDT
Astronomical Twilight 5:12 AM MDT 8:22 PM MDT
Moon 12:00 AM MDT 2:12 PM MDT
Length of Visible Light 13h 11m
Length of Day
12h 21m
Tomorrow will be 2m 6s shorter.
Last Quarter, 45% of the Moon is Illuminated
Today
Last Quarter
Sep 24
New
Oct 1
First Quarter
Oct 8
Full
Oct 15
Last Quarter

Today's Extremes

State Highs State Lows

Community

WunderPhotos

Upload Photos

1,753,807 photos uploaded!

Nearby

Snow Depth

Station Depth Elevation
McKnight Cabin 0 in 9240 ft
Santa Fe 1 in 11445 ft
Wesner Springs 3 in 11120 ft
Quemazon 1 in 9500 ft
Tolby 0 in 10180 ft

Earthquake Activity

City Distance Mag. Time & Date
No recent earthquake activity has been reported nearby.
Minimum magnitude displayed is 2.5.

Coastal Water Temperatures

Place Temperature
No Stations Reporting

Nearby Weather Stations